This is the latest recevied weather packets stored in our database for station/object W5HKR. If no packets are shown the sender has not sent any weather packets the latest 10 day(s).
| Time | Temp. | Humidity | Pressure | Rain* | Wind** | Luminosity | Snow |
|---|---|---|---|---|---|---|---|
| 1777211311 | 22.22° C | 97% | 980.5 hPa | 0 mm | - | - | - |
| 1777211202 | 18.33° C | 91% | 990.6 hPa | 0 mm | - | - | - |
| 1777211010 | 18.33° C | 91% | 990.6 hPa | 0 mm | - | - | - |
| 1777210712 | 22.22° C | 97% | 980.8 hPa | 0 mm | - | - | - |
| 1777210411 | 18.33° C | 91% | 990.6 hPa | 0 mm | - | - | - |
| 1777210110 | 18.33° C | 91% | 990.6 hPa | 0 mm | - | - | - |
| 1777209812 | 18.33° C | 91% | 990.6 hPa | 0 mm | - | - | - |
| 1777209511 | 22.22° C | 97% | 980.6 hPa | 0 mm | - | - | - |
| 1777209211 | 22.22° C | 97% | 980.1 hPa | 0 mm | - | - | - |
| 1777209042 | 22.22° C | 97% | 980.4 hPa | 0 mm | - | - | - |
| 1777208911 | 18.33° C | 91% | 990.6 hPa | 0 mm | - | - | - |
| 1777208611 | 22.22° C | 97% | 980.6 hPa | 0 mm | - | - | - |
| 1777208311 | 18.33° C | 91% | 990.6 hPa | 0 mm | - | - | - |
| 1777208010 | 18.33° C | 91% | 990.6 hPa | 0 mm | - | - | - |
| 1777207963 | 21.67° C | 97% | 980.4 hPa | 0 mm | - | - | - |
| 1777207711 | 21.67° C | 97% | 980.4 hPa | 0 mm | - | - | - |
| 1777207411 | 18.33° C | 91% | 990.6 hPa | 0 mm | - | - | - |
| 1777207111 | 21.67° C | 97% | 980 hPa | 0 mm | - | - | - |
| 1777206883 | 21.67° C | 97% | 979.8 hPa | 0 mm | - | - | - |
| 1777206810 | 21.67° C | 97% | 980.2 hPa | 0 mm | - | - | - |
| 1777206511 | 18.33° C | 91% | 990.6 hPa | 0 mm | - | - | - |
| 1777206210 | 18.33° C | 91% | 990.6 hPa | 0 mm | - | - | - |
| 1777205911 | 18.33° C | 91% | 990.6 hPa | 0 mm | - | - | - |
| 1777205802 | 21.11° C | 97% | 979.3 hPa | 0 mm | - | - | - |
| 1777205612 | 18.33° C | 91% | 990.6 hPa | 0 mm | - | - | - |
* Rain latest hour (hover to see other rain measurements)
** Current wind speed in m/s (hover to see current wind gust speed)